Time;durP1;ratioP1;P1;durP2;ratioP2;P2;SDS_P1;SDS_P2;PMS_P1;PMS_P2;Temp;Humidity;BMP_temperature;BMP_pressure;BME280_temperature;BME280_humidity;BME280_pressure;Samples;Min_cycle;Max_cycle;Signal;HPM_P1;HPM_P2
2021/05/09 00:00:35;;;;;;;7.00;5.10;;;;;;;;;;5033941;28;20045;-66
2021/05/09 00:03:22;;;;;;;6.72;4.72;;;;;;;;;;5033435;28;20056;-65
2021/05/09 00:06:07;;;;;;;6.80;5.30;;;;;;;;;;5034221;28;20076;-66
2021/05/09 00:08:52;;;;;;;9.80;5.57;;;;;;;;;;5033332;28;20053;-66
2021/05/09 00:11:37;;;;;;;12.80;5.22;;;;;;;;;;5032776;28;20181;-65
2021/05/09 00:14:24;;;;;;;7.43;5.30;;;;;;;;;;5032752;28;20392;-66
2021/05/09 00:17:09;;;;;;;13.68;5.32;;;;;;;;;;5032875;28;20132;-65
2021/05/09 00:19:58;;;;;;;8.35;5.32;;;;;;;;;;5034009;28;20107;-66
2021/05/09 00:22:43;;;;;;;9.48;5.65;;;;;;;;;;5031988;28;20045;-66
2021/05/09 00:25:30;;;;;;;9.57;5.97;;;;;;;;;;5033897;28;20053;-66
2021/05/09 00:28:15;;;;;;;5.93;5.32;;;;;;;;;;5032767;28;20045;-66
2021/05/09 00:31:00;;;;;;;7.43;5.65;;;;;;;;;;5033410;28;20052;-66
2021/05/09 00:33:52;;;;;;;7.18;5.68;;;;;;;;;;5033174;28;20046;-65
2021/05/09 00:36:37;;;;;;;9.27;6.35;;;;;;;;;;5032829;28;20050;-66
2021/05/09 00:39:31;;;;;;;6.85;6.20;;;;;;;;;;5033704;28;20053;-67
2021/05/09 00:42:17;;;;;;;9.88;6.38;;;;;;;;;;5033401;28;20045;-65
2021/05/09 00:45:04;;;;;;;6.20;5.57;;;;;;;;;;5032704;28;20125;-64
2021/05/09 00:47:50;;;;;;;8.75;6.57;;;;;;;;;;5033428;28;20053;-64
2021/05/09 00:50:35;;;;;;;7.40;6.65;;;;;;;;;;5032109;28;20621;-64
2021/05/09 00:53:21;;;;;;;8.35;6.57;;;;;;;;;;5033440;28;20049;-64
2021/05/09 00:56:06;;;;;;;11.65;7.05;;;;;;;;;;5004636;28;20049;-64
2021/05/09 00:58:52;;;;;;;9.45;6.63;;;;;;;;;;5017297;28;20063;-64
2021/05/09 01:01:38;;;;;;;11.77;6.53;;;;;;;;;;5033009;28;20045;-64
2021/05/09 01:04:24;;;;;;;9.10;6.40;;;;;;;;;;5018349;28;20103;-64
2021/05/09 01:07:10;;;;;;;10.43;6.38;;;;;;;;;;5016091;28;20045;-64
2021/05/09 01:09:56;;;;;;;10.63;6.60;;;;;;;;;;5018078;28;20127;-64
2021/05/09 01:12:43;;;;;;;10.13;7.30;;;;;;;;;;5017538;28;20050;-64
2021/05/09 01:15:28;;;;;;;8.45;6.53;;;;;;;;;;5030981;28;20038;-64
2021/05/09 01:18:14;;;;;;;9.40;7.00;;;;;;;;;;5004345;28;20054;-64
2021/05/09 01:21:00;;;;;;;8.15;6.70;;;;;;;;;;5017645;28;20140;-64
2021/05/09 01:23:45;;;;;;;9.02;6.70;;;;;;;;;;5017240;28;20053;-64
2021/05/09 01:26:31;;;;;;;9.18;6.72;;;;;;;;;;5032564;28;20050;-64
2021/05/09 01:29:16;;;;;;;8.70;7.10;;;;;;;;;;5031538;28;20053;-65
2021/05/09 01:32:02;;;;;;;14.63;6.72;;;;;;;;;;5032453;28;20076;-64
2021/05/09 01:34:48;;;;;;;10.45;6.57;;;;;;;;;;5032587;28;20095;-64
2021/05/09 01:37:36;;;;;;;7.75;6.47;;;;;;;;;;5031065;28;20100;-65
2021/05/09 01:40:21;;;;;;;8.98;6.50;;;;;;;;;;5012542;28;20543;-65
2021/05/09 01:43:06;;;;;;;8.93;6.68;;;;;;;;;;5019707;28;20052;-65
2021/05/09 01:45:52;;;;;;;9.63;6.55;;;;;;;;;;5031866;28;20491;-65
2021/05/09 01:48:37;;;;;;;7.05;6.03;;;;;;;;;;5017403;28;20100;-65
2021/05/09 01:51:23;;;;;;;8.98;6.43;;;;;;;;;;5030742;28;20089;-65
2021/05/09 01:54:08;;;;;;;8.55;7.20;;;;;;;;;;5030440;28;20142;-65
2021/05/09 01:56:54;;;;;;;12.18;6.93;;;;;;;;;;5017062;28;20073;-65
2021/05/09 01:59:44;;;;;;;8.77;7.47;;;;;;;;;;5015947;28;20045;-65
2021/05/09 02:02:31;;;;;;;11.95;7.72;;;;;;;;;;5031159;28;20041;-65
2021/05/09 02:05:21;;;;;;;9.70;7.88;;;;;;;;;;5017142;28;20076;-65
2021/05/09 02:08:11;;;;;;;10.45;7.55;;;;;;;;;;5017763;28;20108;-65
2021/05/09 02:11:04;;;;;;;8.55;6.30;;;;;;;;;;5030899;28;20057;-65
2021/05/09 02:13:50;;;;;;;10.18;7.07;;;;;;;;;;5030783;28;20057;-65
2021/05/09 02:16:44;;;;;;;9.90;7.47;;;;;;;;;;5016166;28;20041;-65
2021/05/09 02:19:34;;;;;;;13.13;8.45;;;;;;;;;;5015408;28;20412;-65
2021/05/09 02:22:19;;;;;;;9.40;7.50;;;;;;;;;;5015277;28;20128;-65
2021/05/09 02:25:05;;;;;;;11.45;8.18;;;;;;;;;;5017038;28;20046;-65
2021/05/09 02:27:51;;;;;;;10.80;7.65;;;;;;;;;;5016767;28;20053;-65
2021/05/09 02:30:36;;;;;;;13.70;7.78;;;;;;;;;;5031291;28;20045;-65
2021/05/09 02:33:22;;;;;;;11.80;8.75;;;;;;;;;;5016050;28;20045;-64
2021/05/09 02:36:07;;;;;;;10.95;9.30;;;;;;;;;;5031708;28;20041;-64
2021/05/09 02:38:53;;;;;;;12.00;8.82;;;;;;;;;;5016835;28;20049;-64
2021/05/09 02:41:39;;;;;;;10.35;9.00;;;;;;;;;;5016271;28;20519;-64
2021/05/09 02:44:24;;;;;;;11.02;8.63;;;;;;;;;;5031786;28;20113;-64
2021/05/09 02:47:10;;;;;;;13.80;9.30;;;;;;;;;;5031693;28;20103;-64
2021/05/09 02:49:58;;;;;;;11.05;8.68;;;;;;;;;;4996900;28;20042;-64
2021/05/09 02:52:44;;;;;;;12.90;8.05;;;;;;;;;;5068129;22;20526;-62
2021/05/09 02:55:31;;;;;;;12.98;8.88;;;;;;;;;;5052450;28;20048;-63
2021/05/09 02:58:16;;;;;;;9.30;7.68;;;;;;;;;;5054792;28;20052;-63
2021/05/09 03:01:03;;;;;;;9.32;7.50;;;;;;;;;;5055198;28;20645;-62
2021/05/09 03:03:50;;;;;;;16.20;8.30;;;;;;;;;;5055555;28;20053;-63
2021/05/09 03:06:36;;;;;;;11.75;7.93;;;;;;;;;;5055196;28;20053;-64
2021/05/09 03:09:25;;;;;;;10.23;7.43;;;;;;;;;;5053227;28;20128;-63
2021/05/09 03:12:10;;;;;;;9.98;7.90;;;;;;;;;;5055058;28;20422;-63
2021/05/09 03:14:55;;;;;;;10.57;8.18;;;;;;;;;;5055328;28;20099;-62
2021/05/09 03:17:41;;;;;;;8.93;7.65;;;;;;;;;;5054983;28;20120;-63
2021/05/09 03:20:26;;;;;;;10.20;7.57;;;;;;;;;;5047111;28;20037;-62
2021/05/09 03:23:12;;;;;;;10.68;7.40;;;;;;;;;;5035242;28;20412;-62
2021/05/09 03:25:57;;;;;;;9.68;7.70;;;;;;;;;;5034999;28;20057;-64
2021/05/09 03:28:43;;;;;;;10.82;6.78;;;;;;;;;;5034660;28;20045;-63
2021/05/09 03:31:31;;;;;;;10.57;7.60;;;;;;;;;;5035391;28;20124;-63
2021/05/09 03:34:16;;;;;;;9.38;7.35;;;;;;;;;;5035039;28;20088;-62
2021/05/09 03:37:02;;;;;;;11.55;7.32;;;;;;;;;;5034745;28;20172;-63
2021/05/09 03:39:47;;;;;;;11.65;7.30;;;;;;;;;;5034534;28;20045;-62
2021/05/09 03:42:33;;;;;;;9.07;6.43;;;;;;;;;;5034784;28;20128;-62
2021/05/09 03:45:18;;;;;;;8.45;7.15;;;;;;;;;;5034704;28;20042;-62
2021/05/09 03:48:04;;;;;;;9.98;6.88;;;;;;;;;;5039140;28;20048;-63
2021/05/09 03:50:49;;;;;;;7.55;6.65;;;;;;;;;;5054246;28;20114;-62
2021/05/09 03:53:34;;;;;;;10.90;6.75;;;;;;;;;;5054266;28;20052;-63
2021/05/09 03:56:19;;;;;;;12.98;7.10;;;;;;;;;;5054193;28;20078;-61
2021/05/09 03:59:05;;;;;;;7.60;6.50;;;;;;;;;;5053621;28;20052;-62
2021/05/09 04:01:50;;;;;;;11.10;6.32;;;;;;;;;;5054124;28;20041;-63
2021/05/09 04:04:36;;;;;;;9.10;6.60;;;;;;;;;;5054174;28;20099;-62
2021/05/09 04:07:21;;;;;;;10.38;6.40;;;;;;;;;;5053593;28;20072;-64
2021/05/09 04:10:06;;;;;;;7.78;6.55;;;;;;;;;;5053683;28;20049;-64
2021/05/09 04:12:52;;;;;;;6.60;5.97;;;;;;;;;;5054517;28;20133;-64
2021/05/09 04:15:37;;;;;;;7.97;6.82;;;;;;;;;;5053614;28;20503;-63
2021/05/09 04:18:22;;;;;;;9.20;6.70;;;;;;;;;;5054628;28;20056;-64
2021/05/09 04:21:08;;;;;;;10.43;6.65;;;;;;;;;;5052720;28;20048;-63
2021/05/09 04:23:53;;;;;;;9.18;6.60;;;;;;;;;;5053054;28;20072;-63
2021/05/09 04:26:39;;;;;;;9.77;6.30;;;;;;;;;;5054096;28;20044;-63
2021/05/09 04:29:24;;;;;;;10.13;6.28;;;;;;;;;;5053292;28;20150;-64
2021/05/09 04:32:09;;;;;;;9.10;6.50;;;;;;;;;;5054250;28;20045;-64
2021/05/09 04:34:55;;;;;;;8.35;6.68;;;;;;;;;;5054548;28;20049;-64
2021/05/09 04:37:42;;;;;;;10.65;7.72;;;;;;;;;;5053530;28;20483;-63
2021/05/09 04:40:27;;;;;;;12.88;7.45;;;;;;;;;;5052462;28;20041;-63
2021/05/09 04:43:16;;;;;;;10.02;6.85;;;;;;;;;;5052871;28;20096;-62
2021/05/09 04:46:01;;;;;;;7.72;6.70;;;;;;;;;;5053707;28;20498;-63
2021/05/09 04:48:47;;;;;;;9.40;6.45;;;;;;;;;;5053405;28;20518;-62
2021/05/09 04:51:32;;;;;;;9.13;6.60;;;;;;;;;;5052322;28;20037;-63
2021/05/09 04:54:18;;;;;;;9.93;6.68;;;;;;;;;;5053185;28;20514;-62
2021/05/09 04:57:03;;;;;;;7.57;6.75;;;;;;;;;;5053213;28;20127;-63
2021/05/09 04:59:49;;;;;;;9.75;5.90;;;;;;;;;;5053053;28;20048;-63
2021/05/09 05:02:34;;;;;;;8.38;5.65;;;;;;;;;;5052964;28;20410;-62
2021/05/09 05:05:19;;;;;;;7.70;6.13;;;;;;;;;;5053330;28;20068;-62
2021/05/09 05:08:05;;;;;;;7.32;5.30;;;;;;;;;;5053135;28;20132;-63
2021/05/09 05:10:50;;;;;;;9.60;6.18;;;;;;;;;;5051929;28;20045;-63
2021/05/09 05:13:36;;;;;;;9.15;6.43;;;;;;;;;;5049940;28;20116;-63
2021/05/09 05:16:22;;;;;;;8.45;5.85;;;;;;;;;;5053281;28;20120;-64
2021/05/09 05:19:07;;;;;;;6.47;5.57;;;;;;;;;;5053049;28;20045;-63
2021/05/09 05:21:53;;;;;;;6.70;5.05;;;;;;;;;;5052252;28;20053;-64
2021/05/09 05:24:38;;;;;;;8.27;5.72;;;;;;;;;;5053194;28;20048;-63
2021/05/09 05:27:23;;;;;;;8.15;6.28;;;;;;;;;;5053138;28;20048;-63
2021/05/09 05:30:10;;;;;;;6.65;5.93;;;;;;;;;;5052339;28;20099;-63
2021/05/09 05:32:57;;;;;;;5.55;5.03;;;;;;;;;;5052120;28;20045;-62
2021/05/09 05:35:42;;;;;;;7.53;5.72;;;;;;;;;;5052747;28;20060;-63
2021/05/09 05:38:28;;;;;;;5.78;5.00;;;;;;;;;;5052543;28;20049;-63
2021/05/09 05:41:13;;;;;;;7.68;5.43;;;;;;;;;;5052299;28;20045;-62
2021/05/09 05:43:59;;;;;;;8.43;5.85;;;;;;;;;;5051492;28;20052;-63
2021/05/09 05:46:44;;;;;;;7.35;6.15;;;;;;;;;;5052031;28;20419;-63
2021/05/09 05:49:30;;;;;;;9.30;6.07;;;;;;;;;;5052244;28;20049;-62
2021/05/09 05:52:15;;;;;;;8.20;5.93;;;;;;;;;;5051483;28;20090;-63
2021/05/09 05:55:00;;;;;;;8.32;5.50;;;;;;;;;;5052210;28;20056;-63
2021/05/09 05:57:46;;;;;;;8.60;5.65;;;;;;;;;;5052425;28;20049;-64
2021/05/09 06:00:31;;;;;;;9.02;6.15;;;;;;;;;;5051047;28;20779;-63
2021/05/09 06:03:16;;;;;;;6.50;5.22;;;;;;;;;;5052100;28;20080;-64
2021/05/09 06:06:02;;;;;;;6.78;5.57;;;;;;;;;;5048571;28;20041;-64
2021/05/09 06:08:50;;;;;;;7.78;6.00;;;;;;;;;;5040289;28;20455;-63
2021/05/09 06:11:35;;;;;;;6.85;5.47;;;;;;;;;;5041731;28;20057;-62
2021/05/09 06:14:21;;;;;;;9.25;5.80;;;;;;;;;;5052156;28;20124;-63
2021/05/09 06:17:06;;;;;;;7.20;5.35;;;;;;;;;;5051947;28;20045;-62
2021/05/09 06:19:51;;;;;;;6.13;5.50;;;;;;;;;;5051583;28;20037;-63
2021/05/09 06:22:37;;;;;;;6.45;4.72;;;;;;;;;;5050716;28;20492;-64
2021/05/09 06:25:22;;;;;;;7.70;5.47;;;;;;;;;;5052165;28;20099;-64
2021/05/09 06:28:08;;;;;;;8.07;5.55;;;;;;;;;;5051942;28;20123;-64
2021/05/09 06:30:54;;;;;;;5.85;4.60;;;;;;;;;;5053497;28;20114;-64
2021/05/09 06:33:38;;;;;;;8.55;5.65;;;;;;;;;;5055417;28;20056;-64
2021/05/09 06:36:24;;;;;;;6.00;5.38;;;;;;;;;;5056061;28;20060;-64
2021/05/09 06:39:09;;;;;;;7.75;6.10;;;;;;;;;;5056048;28;20071;-63
2021/05/09 06:42:00;;;;;;;8.57;5.75;;;;;;;;;;5055071;28;20053;-64
2021/05/09 06:44:54;;;;;;;6.93;5.43;;;;;;;;;;5055865;28;20085;-63
2021/05/09 06:47:40;;;;;;;8.90;5.88;;;;;;;;;;5055709;28;20045;-64
2021/05/09 06:50:26;;;;;;;7.72;5.60;;;;;;;;;;5055315;28;20438;-63
2021/05/09 06:53:11;;;;;;;8.02;5.70;;;;;;;;;;5054495;28;20064;-63
2021/05/09 06:55:58;;;;;;;9.80;6.20;;;;;;;;;;5055511;28;20491;-63
2021/05/09 06:58:44;;;;;;;10.07;5.72;;;;;;;;;;5055533;28;20045;-63
2021/05/09 07:01:29;;;;;;;5.60;5.05;;;;;;;;;;5054334;28;20056;-63
2021/05/09 07:04:14;;;;;;;8.27;5.65;;;;;;;;;;5055321;28;20406;-64
2021/05/09 07:07:00;;;;;;;8.60;5.95;;;;;;;;;;5055453;28;20076;-63
2021/05/09 07:09:45;;;;;;;8.30;5.88;;;;;;;;;;5055043;28;20052;-64
2021/05/09 07:12:30;;;;;;;6.40;5.40;;;;;;;;;;5054560;28;20080;-64
2021/05/09 07:15:21;;;;;;;7.22;5.32;;;;;;;;;;5053579;28;20053;-64
2021/05/09 07:18:10;;;;;;;7.55;5.20;;;;;;;;;;5035211;28;20055;-64
2021/05/09 07:20:57;;;;;;;7.63;5.22;;;;;;;;;;5048939;28;20044;-63
2021/05/09 07:23:47;;;;;;;6.70;5.40;;;;;;;;;;5055135;28;20068;-65
2021/05/09 07:26:32;;;;;;;9.27;5.97;;;;;;;;;;5054990;28;20111;-63
2021/05/09 07:29:17;;;;;;;5.90;4.97;;;;;;;;;;5055085;28;20155;-65
2021/05/09 07:32:03;;;;;;;6.97;5.03;;;;;;;;;;5054108;28;20092;-64
2021/05/09 07:34:48;;;;;;;6.72;4.75;;;;;;;;;;5054984;28;20600;-65
2021/05/09 07:37:34;;;;;;;7.05;5.00;;;;;;;;;;5055079;28;20049;-63
2021/05/09 07:40:23;;;;;;;7.55;4.57;;;;;;;;;;5052647;28;20037;-63
2021/05/09 07:43:08;;;;;;;8.18;5.05;;;;;;;;;;5053092;28;20124;-63
2021/05/09 07:45:53;;;;;;;7.47;4.50;;;;;;;;;;5054600;28;20491;-64
2021/05/09 07:48:38;;;;;;;7.53;5.15;;;;;;;;;;5051697;28;20057;-63
2021/05/09 07:51:24;;;;;;;6.10;4.97;;;;;;;;;;5044199;28;20050;-63
2021/05/09 07:54:09;;;;;;;6.85;5.38;;;;;;;;;;5042465;28;20132;-64
2021/05/09 07:56:54;;;;;;;5.75;4.68;;;;;;;;;;5043992;28;20046;-64
2021/05/09 07:59:41;;;;;;;8.30;4.15;;;;;;;;;;5052990;28;20158;-63
2021/05/09 08:02:26;;;;;;;7.85;4.75;;;;;;;;;;5043799;28;20041;-64
2021/05/09 08:05:12;;;;;;;10.15;4.68;;;;;;;;;;5041997;28;20041;-64
2021/05/09 08:07:58;;;;;;;6.35;4.03;;;;;;;;;;5041315;28;20431;-64
2021/05/09 08:10:43;;;;;;;5.90;4.20;;;;;;;;;;5041166;28;20045;-64
2021/05/09 08:13:28;;;;;;;5.22;3.90;;;;;;;;;;5044371;28;20048;-64
2021/05/09 08:16:13;;;;;;;7.18;3.92;;;;;;;;;;5054112;28;20484;-64
2021/05/09 08:18:58;;;;;;;5.75;4.20;;;;;;;;;;5053932;28;20091;-64
2021/05/09 08:21:44;;;;;;;6.60;4.53;;;;;;;;;;5053007;28;20041;-64
2021/05/09 08:24:30;;;;;;;5.65;4.35;;;;;;;;;;5053846;28;20415;-65
2021/05/09 08:27:15;;;;;;;4.50;3.45;;;;;;;;;;5053621;28;20056;-64
2021/05/09 08:30:01;;;;;;;5.13;3.80;;;;;;;;;;5052373;28;20534;-64
2021/05/09 08:32:47;;;;;;;5.40;3.67;;;;;;;;;;5044410;28;20049;-65
2021/05/09 08:35:32;;;;;;;5.47;3.78;;;;;;;;;;5051342;28;20053;-64
2021/05/09 08:38:17;;;;;;;5.53;3.85;;;;;;;;;;5044715;28;20041;-63
2021/05/09 08:41:03;;;;;;;5.90;3.67;;;;;;;;;;5051440;28;20037;-63
2021/05/09 08:43:48;;;;;;;6.47;3.40;;;;;;;;;;5050544;28;20041;-63
2021/05/09 08:46:33;;;;;;;5.53;3.53;;;;;;;;;;5033640;28;20049;-64
2021/05/09 08:49:18;;;;;;;4.78;3.13;;;;;;;;;;5052188;28;20143;-65
2021/05/09 08:52:03;;;;;;;2.90;2.63;;;;;;;;;;5053124;28;20078;-64
2021/05/09 08:54:49;;;;;;;3.95;2.97;;;;;;;;;;5049699;28;20112;-64
2021/05/09 08:57:34;;;;;;;6.93;3.25;;;;;;;;;;5049757;28;20044;-64
2021/05/09 09:00:20;;;;;;;4.72;2.47;;;;;;;;;;5051014;28;20052;-63
2021/05/09 09:03:06;;;;;;;3.40;2.25;;;;;;;;;;5051869;28;20119;-64
2021/05/09 09:05:51;;;;;;;3.38;2.40;;;;;;;;;;5050230;28;20487;-65
2021/05/09 09:08:49;;;;;;;4.43;3.15;;;;;;;;;;5050052;28;20084;-64
2021/05/09 09:11:34;;;;;;;2.95;2.20;;;;;;;;;;5052829;28;20053;-65
2021/05/09 09:14:26;;;;;;;3.67;2.00;;;;;;;;;;5081945;22;20058;-65
2021/05/09 09:17:13;;;;;;;4.72;2.50;;;;;;;;;;5020566;28;20467;-66
2021/05/09 09:20:16;;;;;;;5.65;2.55;;;;;;;;;;5044322;28;20112;-66
2021/05/09 09:23:04;;;;;;;3.72;2.47;;;;;;;;;;5053820;28;20166;-66
2021/05/09 09:25:49;;;;;;;3.33;2.50;;;;;;;;;;5072326;28;20446;-66
2021/05/09 09:28:34;;;;;;;2.63;1.90;;;;;;;;;;5032903;28;20050;-66
2021/05/09 09:31:35;;;;;;;4.40;1.55;;;;;;;;;;5017909;28;20061;-66
2021/05/09 09:34:22;;;;;;;2.00;1.40;;;;;;;;;;5052553;28;20049;-66
2021/05/09 09:37:07;;;;;;;3.28;1.50;;;;;;;;;;5052575;28;20037;-66
2021/05/09 09:40:00;;;;;;;3.45;1.80;;;;;;;;;;5072096;28;20487;-65
2021/05/09 09:42:48;;;;;;;5.30;1.80;;;;;;;;;;5071070;28;20053;-65
2021/05/09 09:45:34;;;;;;;6.38;2.22;;;;;;;;;;5064883;28;20041;-65
2021/05/09 09:48:19;;;;;;;4.15;2.42;;;;;;;;;;5071371;28;20056;-65
2021/05/09 09:51:04;;;;;;;3.70;2.20;;;;;;;;;;5067023;28;20081;-65
2021/05/09 09:53:50;;;;;;;5.28;2.22;;;;;;;;;;5072282;28;20056;-65
2021/05/09 09:56:35;;;;;;;5.55;2.13;;;;;;;;;;5072181;28;20090;-66
2021/05/09 09:59:20;;;;;;;4.70;2.70;;;;;;;;;;5063660;28;20055;-66
2021/05/09 10:02:06;;;;;;;3.78;2.78;;;;;;;;;;5069421;28;20409;-66
2021/05/09 10:04:52;;;;;;;5.43;2.75;;;;;;;;;;5068443;28;20043;-66
2021/05/09 10:07:37;;;;;;;5.40;2.78;;;;;;;;;;5071325;28;20056;-66
2021/05/09 10:10:22;;;;;;;3.08;2.50;;;;;;;;;;5071826;28;20044;-66
2021/05/09 10:13:07;;;;;;;4.82;2.85;;;;;;;;;;5067811;28;20040;-65
2021/05/09 10:15:56;;;;;;;2.90;2.50;;;;;;;;;;5070906;28;20490;-66
2021/05/09 10:18:45;;;;;;;5.22;2.72;;;;;;;;;;5071853;28;20508;-65
2021/05/09 10:21:36;;;;;;;2.75;1.85;;;;;;;;;;5068112;28;20056;-66
2021/05/09 10:24:22;;;;;;;2.63;1.67;;;;;;;;;;5072042;28;20051;-65
2021/05/09 10:27:11;;;;;;;4.50;1.80;;;;;;;;;;5069724;28;20057;-66
2021/05/09 10:29:56;;;;;;;4.63;1.60;;;;;;;;;;5071571;28;20127;-66
2021/05/09 10:32:45;;;;;;;2.15;1.83;;;;;;;;;;5043820;28;20124;-66
2021/05/09 10:35:35;;;;;;;3.45;1.58;;;;;;;;;;5043468;28;20045;-65
2021/05/09 10:38:20;;;;;;;2.10;1.45;;;;;;;;;;5041344;28;20052;-65
2021/05/09 10:41:12;;;;;;;3.25;1.70;;;;;;;;;;5051462;28;20037;-66
2021/05/09 10:43:57;;;;;;;;;;;;;;;;;;5069836;28;20048;-65
2021/05/09 10:47:01;;;;;;;3.30;1.90;;;;;;;;;;5048088;28;19921;-66
2021/05/09 10:50:28;;;;;;;2.67;1.60;;;;;;;;;;5057237;28;20511;-66
2021/05/09 10:53:34;;;;;;;3.95;1.95;;;;;;;;;;5042186;28;20064;-66
2021/05/09 10:56:20;;;;;;;3.83;2.00;;;;;;;;;;5050335;28;20507;-66
2021/05/09 10:59:05;;;;;;;3.25;1.30;;;;;;;;;;5048125;28;20496;-65
2021/05/09 11:02:06;;;;;;;3.13;0.90;;;;;;;;;;5038169;28;20057;-65
2021/05/09 11:04:51;;;;;;;3.47;1.00;;;;;;;;;;5062356;28;20157;-65
2021/05/09 11:07:46;;;;;;;3.90;0.80;;;;;;;;;;5064819;28;20367;-66
2021/05/09 11:10:38;;;;;;;3.00;0.82;;;;;;;;;;5038441;28;20060;-66
2021/05/09 11:13:23;;;;;;;1.95;0.80;;;;;;;;;;5049046;28;20037;-66
2021/05/09 11:16:19;;;;;;;2.17;0.70;;;;;;;;;;5047514;28;20049;-65
2021/05/09 11:19:05;;;;;;;1.27;0.68;;;;;;;;;;5070959;28;20045;-66
2021/05/09 11:21:56;;;;;;;3.17;0.93;;;;;;;;;;5069996;28;20123;-66
2021/05/09 11:24:42;;;;;;;2.22;1.00;;;;;;;;;;5072985;28;20383;-65
2021/05/09 11:27:27;;;;;;;1.80;0.80;;;;;;;;;;5053068;28;20110;-65
2021/05/09 11:30:13;;;;;;;2.05;1.23;;;;;;;;;;5072613;28;20052;-66
2021/05/09 11:32:58;;;;;;;1.65;0.60;;;;;;;;;;5052421;28;20466;-66
2021/05/09 11:35:44;;;;;;;3.13;0.60;;;;;;;;;;5032033;28;20115;-67
2021/05/09 11:38:29;;;;;;;3.08;0.80;;;;;;;;;;5033069;28;20045;-65
2021/05/09 11:41:15;;;;;;;2.38;0.65;;;;;;;;;;5037286;28;20052;-66
2021/05/09 11:44:04;;;;;;;0.88;0.60;;;;;;;;;;5030100;28;20506;-65
2021/05/09 11:46:49;;;;;;;1.77;0.60;;;;;;;;;;5037692;28;20037;-65
2021/05/09 11:49:35;;;;;;;1.45;0.93;;;;;;;;;;5049068;28;20040;-66
2021/05/09 11:52:21;;;;;;;5.50;1.00;;;;;;;;;;5052824;28;20128;-65
2021/05/09 11:55:06;;;;;;;1.92;0.75;;;;;;;;;;5061509;28;20048;-65
2021/05/09 11:57:52;;;;;;;0.95;0.80;;;;;;;;;;5071604;28;20465;-64
2021/05/09 12:00:37;;;;;;;3.38;0.88;;;;;;;;;;5069633;28;20498;-65
2021/05/09 12:03:23;;;;;;;1.48;0.98;;;;;;;;;;5031308;28;20069;-66
2021/05/09 12:06:09;;;;;;;2.05;1.13;;;;;;;;;;5063102;28;20051;-65
2021/05/09 12:08:55;;;;;;;2.00;0.85;;;;;;;;;;5055600;28;20045;-66
2021/05/09 12:11:40;;;;;;;2.20;0.70;;;;;;;;;;5029828;28;20045;-66
2021/05/09 12:14:28;;;;;;;2.13;0.90;;;;;;;;;;5071053;28;20102;-65
2021/05/09 12:17:23;;;;;;;1.60;0.57;;;;;;;;;;5031898;28;20038;-65
2021/05/09 12:20:08;;;;;;;3.10;1.08;;;;;;;;;;5051371;28;20049;-65
2021/05/09 12:22:53;;;;;;;3.88;0.88;;;;;;;;;;5062014;28;20041;-65
2021/05/09 12:25:45;;;;;;;1.88;0.90;;;;;;;;;;5051244;28;20049;-65
2021/05/09 12:28:32;;;;;;;3.78;1.10;;;;;;;;;;5049742;28;20049;-64
2021/05/09 12:31:19;;;;;;;1.40;0.80;;;;;;;;;;5060278;28;20061;-65
2021/05/09 12:34:04;;;;;;;2.42;0.82;;;;;;;;;;5060125;28;20135;-65
2021/05/09 12:37:04;;;;;;;1.67;0.82;;;;;;;;;;5055805;28;20511;-62
2021/05/09 12:39:50;;;;;;;2.55;0.93;;;;;;;;;;5068465;28;20067;-63
2021/05/09 12:42:54;;;;;;;1.55;0.85;;;;;;;;;;5071895;28;20055;-62
2021/05/09 12:45:40;;;;;;;1.80;1.25;;;;;;;;;;5045477;28;20045;-62
2021/05/09 12:48:30;;;;;;;2.80;0.98;;;;;;;;;;5031294;28;20057;-63
2021/05/09 12:51:15;;;;;;;1.63;1.05;;;;;;;;;;5054371;28;20094;-62
2021/05/09 12:54:00;;;;;;;2.47;1.27;;;;;;;;;;5070873;28;20048;-62
2021/05/09 12:56:46;;;;;;;2.50;1.25;;;;;;;;;;5070689;28;20517;-63
2021/05/09 12:59:31;;;;;;;1.23;0.95;;;;;;;;;;5067847;28;20126;-63
2021/05/09 13:02:18;;;;;;;2.35;1.10;;;;;;;;;;5042561;28;20049;-63
2021/05/09 13:05:16;;;;;;;4.75;1.30;;;;;;;;;;5045537;28;20048;-63
2021/05/09 13:08:02;;;;;;;1.77;1.15;;;;;;;;;;5060102;28;20040;-63
2021/05/09 13:10:47;;;;;;;3.72;1.48;;;;;;;;;;5055118;28;20076;-63
2021/05/09 13:13:32;;;;;;;5.97;1.73;;;;;;;;;;5036010;28;20069;-62
2021/05/09 13:16:17;;;;;;;3.78;1.50;;;;;;;;;;5070868;28;20606;-63
2021/05/09 13:19:02;;;;;;;1.73;1.20;;;;;;;;;;5069510;28;20109;-63
2021/05/09 13:21:48;;;;;;;1.80;0.93;;;;;;;;;;5066827;28;20120;-63
2021/05/09 13:24:33;;;;;;;2.58;1.35;;;;;;;;;;5070852;28;20044;-63
2021/05/09 13:27:18;;;;;;;5.75;2.00;;;;;;;;;;5068067;28;20145;-63
2021/05/09 13:30:05;;;;;;;5.80;2.28;;;;;;;;;;5070096;28;20117;-63
2021/05/09 13:32:50;;;;;;;5.32;1.70;;;;;;;;;;5051791;28;20478;-63
2021/05/09 13:35:35;;;;;;;5.63;1.60;;;;;;;;;;5050191;28;20167;-63
2021/05/09 13:38:21;;;;;;;3.33;1.77;;;;;;;;;;5049103;28;20049;-63
2021/05/09 13:41:06;;;;;;;4.35;1.70;;;;;;;;;;5055100;28;20045;-63
2021/05/09 13:43:51;;;;;;;3.05;1.40;;;;;;;;;;5066877;28;20056;-63
2021/05/09 13:46:37;;;;;;;1.75;1.42;;;;;;;;;;5063106;28;20052;-63
2021/05/09 13:49:22;;;;;;;3.53;1.80;;;;;;;;;;5069672;28;20052;-63
2021/05/09 13:52:08;;;;;;;2.85;1.75;;;;;;;;;;5066555;28;20048;-63
2021/05/09 13:54:53;;;;;;;3.38;2.00;;;;;;;;;;5034388;28;20049;-63
2021/05/09 13:57:39;;;;;;;2.70;1.60;;;;;;;;;;5030282;28;20057;-63
2021/05/09 14:00:24;;;;;;;3.17;1.65;;;;;;;;;;5066581;28;20048;-63
2021/05/09 14:03:10;;;;;;;2.42;1.73;;;;;;;;;;5029479;28;20503;-63
2021/05/09 14:05:55;;;;;;;2.28;1.48;;;;;;;;;;5029836;28;20041;-63
2021/05/09 14:08:41;;;;;;;3.78;1.90;;;;;;;;;;5065149;28;20044;-63
2021/05/09 14:11:27;;;;;;;6.03;2.17;;;;;;;;;;5069997;28;20056;-63
2021/05/09 14:14:12;;;;;;;4.40;1.70;;;;;;;;;;5069955;28;20060;-63
2021/05/09 14:16:57;;;;;;;2.25;1.65;;;;;;;;;;5041886;28;20049;-63
2021/05/09 14:19:42;;;;;;;3.67;1.48;;;;;;;;;;5049301;28;20041;-63
2021/05/09 14:22:28;;;;;;;3.17;1.67;;;;;;;;;;5047589;28;20068;-63
2021/05/09 14:25:13;;;;;;;9.07;2.08;;;;;;;;;;5049383;28;20050;-63
2021/05/09 14:27:59;;;;;;;3.88;1.60;;;;;;;;;;5066038;28;20041;-63
2021/05/09 14:30:44;;;;;;;4.50;1.63;;;;;;;;;;5066619;28;20076;-63
2021/05/09 14:33:29;;;;;;;3.10;1.65;;;;;;;;;;5048500;28;20060;-63
2021/05/09 14:36:14;;;;;;;4.53;1.80;;;;;;;;;;5048480;28;20053;-63
2021/05/09 14:39:00;;;;;;;6.03;2.00;;;;;;;;;;5048812;28;20036;-63
2021/05/09 14:41:45;;;;;;;4.28;2.10;;;;;;;;;;5046614;28;20033;-63
2021/05/09 14:44:30;;;;;;;4.97;2.10;;;;;;;;;;5054852;28;20044;-63
2021/05/09 14:47:16;;;;;;;10.18;2.45;;;;;;;;;;5054380;28;20045;-63
2021/05/09 14:50:01;;;;;;;2.42;1.70;;;;;;;;;;5057203;28;20569;-63
2021/05/09 14:52:46;;;;;;;2.85;1.60;;;;;;;;;;5066483;28;20052;-63
2021/05/09 14:55:31;;;;;;;2.78;1.60;;;;;;;;;;5072629;28;20057;-63
2021/05/09 14:58:18;;;;;;;3.42;1.38;;;;;;;;;;5071890;28;20052;-64
2021/05/09 15:01:04;;;;;;;4.85;1.20;;;;;;;;;;5067919;28;20037;-64
2021/05/09 15:03:49;;;;;;;5.57;1.58;;;;;;;;;;5032603;28;20075;-63
2021/05/09 15:06:34;;;;;;;2.92;1.40;;;;;;;;;;5034065;28;20045;-64
2021/05/09 15:09:20;;;;;;;3.83;1.85;;;;;;;;;;5044172;28;20070;-63
2021/05/09 15:12:05;;;;;;;4.55;1.75;;;;;;;;;;5072576;28;20469;-64
2021/05/09 15:14:50;;;;;;;6.70;1.70;;;;;;;;;;5053719;22;20038;-64
2021/05/09 15:17:36;;;;;;;3.80;1.70;;;;;;;;;;5045881;28;20136;-65
2021/05/09 15:20:21;;;;;;;5.30;2.05;;;;;;;;;;5048029;28;20037;-64
2021/05/09 15:23:06;;;;;;;3.47;1.85;;;;;;;;;;5051325;28;20049;-64
2021/05/09 15:25:51;;;;;;;4.45;2.35;;;;;;;;;;5028139;28;20419;-64
2021/05/09 15:28:37;;;;;;;3.53;1.48;;;;;;;;;;5022998;28;20049;-66
2021/05/09 15:31:22;;;;;;;5.65;1.67;;;;;;;;;;5021554;28;20042;-63
2021/05/09 15:34:07;;;;;;;4.43;1.73;;;;;;;;;;5017352;28;20504;-64
2021/05/09 15:36:53;;;;;;;3.15;1.63;;;;;;;;;;5021230;28;20053;-64
2021/05/09 15:39:39;;;;;;;3.38;1.77;;;;;;;;;;5019092;28;20500;-65
2021/05/09 15:42:24;;;;;;;2.97;2.28;;;;;;;;;;5024836;28;20072;-64
2021/05/09 15:45:10;;;;;;;5.75;2.40;;;;;;;;;;5024975;28;20724;-66
2021/05/09 15:47:57;;;;;;;2.22;1.95;;;;;;;;;;5012323;28;20054;-63
2021/05/09 15:50:43;;;;;;;16.80;2.88;;;;;;;;;;5017714;28;20115;-64
2021/05/09 15:53:28;;;;;;;3.75;1.73;;;;;;;;;;5032385;28;20045;-64
2021/05/09 15:56:13;;;;;;;3.65;1.80;;;;;;;;;;5032690;28;20523;-64
2021/05/09 15:58:58;;;;;;;3.47;1.98;;;;;;;;;;5024412;28;20046;-64
2021/05/09 16:01:43;;;;;;;4.68;2.00;;;;;;;;;;5030750;28;20085;-64
2021/05/09 16:04:29;;;;;;;2.90;2.15;;;;;;;;;;5030767;28;20427;-64
2021/05/09 16:07:14;;;;;;;5.05;2.08;;;;;;;;;;5032572;28;20119;-64
2021/05/09 16:10:00;;;;;;;7.03;2.63;;;;;;;;;;5031799;28;20053;-64
2021/05/09 16:12:45;;;;;;;2.95;2.13;;;;;;;;;;5031479;28;20381;-64
2021/05/09 16:15:30;;;;;;;2.88;1.60;;;;;;;;;;5025287;28;20120;-63
2021/05/09 16:18:15;;;;;;;5.28;1.92;;;;;;;;;;5011854;28;20053;-65
2021/05/09 16:21:01;;;;;;;6.05;2.03;;;;;;;;;;5015686;28;20496;-65
2021/05/09 16:23:46;;;;;;;4.10;1.63;;;;;;;;;;5031427;28;20083;-65
2021/05/09 16:26:32;;;;;;;3.65;2.03;;;;;;;;;;5031614;28;20045;-65
2021/05/09 16:29:17;;;;;;;2.88;1.75;;;;;;;;;;5031454;28;20052;-65
2021/05/09 16:32:03;;;;;;;4.85;2.35;;;;;;;;;;5025907;28;20496;-63
2021/05/09 16:34:48;;;;;;;2.50;1.70;;;;;;;;;;5031033;28;20054;-65